METAR Data
IDs: Format: Raw Decoded Include TAF

Data at: 1440 UTC 21 Apr 2021

METAR for:KFPK (Charotte/Beach Fld, MI, US)
Text:KFPK 211435Z AUTO 32007KT 10SM SCT031 03/M06 A3006 RMK AO2 T00261062
Temperature: 2.6°C ( 37°F)
Dewpoint: -6.2°C ( 21°F) [RH = 52%]
Pressure (altimeter):30.06 inches Hg (1018.0 mb)
Winds:from the NW (320 degrees) at 8 MPH (7 knots; 3.6 m/s)
Visibility:10 or more sm (16+ km)
Ceiling:at least 12,000 feet AGL
Clouds: scattered clouds at 3100 feet AGL
QC Flag:automated observation with no human augmentation

TAF for:KFPK (Charotte/Beach Fld, MI, US)
Text:No data found

METAR for:KLAN (Lansing/Capital City, MI, US)
Text:KLAN 211353Z 34011G17KT 10SM CLR 01/M08 A3008 RMK AO2 SLP193 T00061078
Temperature: 0.6°C ( 33°F)
Dewpoint: -7.8°C ( 18°F) [RH = 53%]
Pressure (altimeter):30.08 inches Hg (1018.7 mb) [Sea level pressure: 1019.3 mb]
Winds:from the NNW (340 degrees) at 13 MPH (11 knots; 5.7 m/s) gusting to 20 MPH (17 knots; 8.7 m/s)
Visibility:10 or more sm (16+ km)
Ceiling:at least 12,000 feet AGL
Clouds:sky clear below 12,000 feet AGL

TAF for:KLAN (Lansing/Capital City, MI, US) issued at 1139 UTC 21 Apr 2021
Text:KLAN 211139Z 2112/2212 32009KT P6SM SCT070
Forecast period:1200 to 1600 UTC 21 April 2021
Forecast type:FROM: standard forecast or significant change
Winds:from the NW (320 degrees) at 10 MPH (9 knots; 4.6 m/s)
Visibility:6 or more sm (10+ km)
Ceiling:at least 12,000 feet AGL
Clouds: scattered clouds at 7000 feet AGL
Text:FM211600 32013G22KT P6SM BKN060
Forecast period:1600 UTC 21 April 2021 to 0200 UTC 22 April 2021
Forecast type:FROM: standard forecast or significant change
Winds:from the NW (320 degrees) at 15 MPH (13 knots; 6.7 m/s) gusting to 25 MPH (22 knots; 11.3 m/s)
Visibility:6 or more sm (10+ km)
Ceiling:6000 feet AGL
Clouds: broken clouds at 6000 feet AGL
Text:FM220200 30006KT P6SM SCT180
Forecast period:0200 to 1200 UTC 22 April 2021
Forecast type:FROM: standard forecast or significant change
Winds:from the WNW (300 degrees) at 7 MPH (6 knots; 3.1 m/s)
Visibility:6 or more sm (10+ km)
Ceiling:at least 12,000 feet AGL
Clouds: scattered clouds at 18000 feet AGL